createdAt,value
2022-12-06T00:01:33.819Z,4.70
2022-12-06T00:04:06.775Z,4.23
2022-12-06T00:06:38.588Z,4.03
2022-12-06T00:09:09.351Z,4.27
2022-12-06T00:11:38.788Z,4.60
2022-12-06T00:14:08.936Z,4.70
2022-12-06T00:16:37.875Z,3.97
2022-12-06T00:19:07.158Z,4.70
2022-12-06T00:21:37.524Z,4.30
2022-12-06T00:24:09.254Z,4.17
2022-12-06T00:26:38.789Z,4.57
2022-12-06T00:29:08.874Z,4.23
2022-12-06T00:31:37.557Z,4.63
2022-12-06T00:34:06.507Z,4.30
2022-12-06T00:36:36.272Z,4.13
2022-12-06T00:39:06.876Z,4.90
2022-12-06T00:41:37.260Z,4.80
2022-12-06T00:44:06.136Z,4.47
2022-12-06T00:46:35.868Z,4.20
2022-12-06T00:49:06.075Z,4.90
2022-12-06T00:51:35.948Z,4.70
2022-12-06T00:54:04.782Z,4.60
2022-12-06T00:56:35.530Z,4.17
2022-12-06T00:59:05.778Z,4.33
2022-12-06T01:01:36.191Z,4.10
2022-12-06T01:04:07.109Z,5.27
2022-12-06T01:06:37.608Z,5.53
2022-12-06T01:09:09.687Z,5.60
2022-12-06T01:11:38.691Z,5.73
2022-12-06T01:14:09.072Z,6.10
2022-12-06T01:16:37.827Z,7.10
2022-12-06T01:19:07.988Z,6.43
2022-12-06T01:21:36.710Z,5.43
2022-12-06T01:24:05.852Z,6.53
2022-12-06T01:26:36.008Z,7.20
2022-12-06T01:29:06.912Z,5.73
2022-12-06T01:31:38.957Z,5.40
2022-12-06T01:34:09.237Z,5.20
2022-12-06T01:36:37.866Z,5.40
2022-12-06T01:39:10.475Z,5.23
2022-12-06T01:41:40.329Z,5.53
2022-12-06T01:44:41.888Z,5.33
2022-12-06T01:47:16.210Z,5.80
2022-12-06T01:49:48.723Z,5.10
2022-12-06T01:52:17.718Z,4.60
2022-12-06T01:54:46.744Z,4.90
2022-12-06T01:57:17.317Z,5.83
2022-12-06T01:59:48.098Z,5.10
2022-12-06T02:02:16.916Z,6.07
2022-12-06T02:04:46.317Z,4.87
2022-12-06T02:07:15.617Z,4.90
2022-12-06T02:09:45.966Z,6.77
2022-12-06T02:12:16.170Z,5.70
2022-12-06T02:14:48.369Z,6.03
2022-12-06T02:17:28.336Z,4.63
2022-12-06T02:20:14.516Z,6.40
2022-12-06T02:23:16.436Z,6.47
2022-12-06T02:26:16.331Z,5.10
2022-12-06T02:29:14.845Z,6.00
2022-12-06T02:31:51.213Z,6.00
2022-12-06T02:34:27.141Z,5.83
2022-12-06T02:37:04.906Z,6.03
2022-12-06T02:39:37.379Z,6.10
2022-12-06T02:42:09.583Z,6.20
2022-12-06T02:44:41.979Z,6.00
2022-12-06T02:47:14.112Z,6.40
2022-12-06T02:49:46.642Z,6.00
2022-12-06T02:52:16.347Z,5.60
2022-12-06T02:54:47.445Z,6.17
2022-12-06T02:57:16.030Z,6.33
2022-12-06T02:59:53.391Z,6.30
2022-12-06T03:02:24.596Z,5.43
2022-12-06T03:05:09.503Z,6.00
2022-12-06T03:07:42.608Z,6.30
2022-12-06T03:10:23.418Z,5.73
2022-12-06T03:13:01.670Z,4.90
2022-12-06T03:15:38.572Z,6.90
2022-12-06T03:18:15.457Z,6.10
2022-12-06T03:20:48.538Z,7.10
2022-12-06T03:23:22.230Z,6.10
2022-12-06T03:25:52.842Z,6.40
2022-12-06T03:28:23.334Z,7.17
2022-12-06T03:30:53.951Z,6.57
2022-12-06T03:33:26.787Z,6.30
2022-12-06T03:35:58.586Z,5.90
2022-12-06T03:38:35.541Z,5.40
2022-12-06T03:41:07.340Z,6.23
2022-12-06T03:43:36.601Z,6.30
2022-12-06T03:46:12.288Z,6.27
2022-12-06T03:48:45.868Z,6.77
2022-12-06T03:51:19.439Z,7.77
2022-12-06T03:53:50.113Z,6.33
2022-12-06T03:56:19.130Z,7.63
2022-12-06T03:58:47.961Z,5.87
2022-12-06T04:01:16.974Z,7.20
2022-12-06T04:03:47.171Z,6.23
2022-12-06T04:06:16.422Z,6.90
2022-12-06T04:08:45.061Z,6.07
2022-12-06T04:11:13.670Z,6.40
2022-12-06T04:13:42.664Z,5.40
2022-12-06T04:16:25.486Z,6.23
2022-12-06T04:18:55.975Z,6.87
2022-12-06T04:21:41.712Z,7.20
2022-12-06T04:24:10.495Z,6.73
2022-12-06T04:26:39.534Z,6.00
2022-12-06T04:29:25.803Z,5.50
2022-12-06T04:32:11.870Z,7.33
2022-12-06T04:34:59.400Z,6.43
2022-12-06T04:37:45.464Z,7.40
2022-12-06T04:40:14.198Z,6.53
2022-12-06T04:42:59.985Z,6.90
2022-12-06T04:45:28.618Z,6.53
2022-12-06T04:47:57.438Z,5.87
2022-12-06T04:50:27.660Z,7.00
2022-12-06T04:52:56.387Z,6.73
2022-12-06T04:55:25.217Z,7.30
2022-12-06T04:57:53.847Z,7.27
2022-12-06T05:00:22.809Z,7.93
2022-12-06T05:02:51.453Z,6.87
2022-12-06T05:05:20.224Z,7.57
2022-12-06T05:07:50.493Z,6.77
2022-12-06T05:10:19.466Z,7.83
2022-12-06T05:12:48.115Z,7.60
2022-12-06T05:15:17.197Z,8.00
2022-12-06T05:17:45.975Z,7.50
2022-12-06T05:20:15.405Z,8.00
2022-12-06T05:22:44.110Z,7.80
2022-12-06T05:25:14.962Z,7.97
2022-12-06T05:27:43.717Z,7.27
2022-12-06T05:30:13.315Z,8.80
2022-12-06T05:32:42.696Z,9.03
2022-12-06T05:35:11.832Z,8.17
2022-12-06T05:37:40.648Z,7.67
2022-12-06T05:40:10.184Z,8.20
2022-12-06T05:42:41.857Z,8.60
2022-12-06T05:45:11.840Z,9.17
2022-12-06T05:47:41.032Z,10.07
2022-12-06T05:50:10.602Z,8.73
2022-12-06T05:52:39.224Z,8.63
2022-12-06T05:55:08.673Z,7.43
2022-12-06T05:57:40.101Z,8.60
2022-12-06T06:00:13.791Z,8.13
2022-12-06T06:02:42.734Z,8.27
2022-12-06T06:05:11.994Z,8.83
2022-12-06T06:07:40.761Z,8.30
2022-12-06T06:10:10.106Z,8.57
2022-12-06T06:12:38.836Z,9.03
2022-12-06T06:15:08.547Z,9.33
2022-12-06T06:17:39.323Z,8.60
2022-12-06T06:20:10.725Z,9.00
2022-12-06T06:22:41.273Z,8.30
2022-12-06T06:25:10.874Z,8.07
2022-12-06T06:27:39.945Z,8.60
2022-12-06T06:30:10.815Z,9.03
2022-12-06T06:32:41.387Z,8.63
2022-12-06T06:35:10.696Z,8.97
2022-12-06T06:37:39.453Z,11.97
2022-12-06T06:40:09.252Z,10.30
2022-12-06T06:42:38.010Z,10.80
2022-12-06T06:45:07.739Z,10.10
2022-12-06T06:47:36.748Z,10.47
2022-12-06T06:50:08.198Z,13.87
2022-12-06T06:52:36.910Z,18.37
2022-12-06T06:55:06.310Z,16.20
2022-12-06T06:57:36.216Z,16.33
2022-12-06T07:00:06.847Z,18.47
2022-12-06T07:02:35.646Z,20.20
2022-12-06T07:05:06.173Z,23.33
2022-12-06T07:07:35.188Z,19.03
2022-12-06T07:10:03.981Z,14.10
2022-12-06T07:12:32.790Z,15.53
2022-12-06T07:15:01.472Z,11.17
2022-12-06T07:17:30.165Z,13.03
2022-12-06T07:19:59.039Z,12.40
2022-12-06T07:22:30.548Z,12.13
2022-12-06T07:24:59.373Z,11.47
2022-12-06T07:27:28.268Z,10.60
2022-12-06T07:29:57.810Z,9.33
2022-12-06T07:32:26.863Z,10.83
2022-12-06T07:34:55.711Z,10.20
2022-12-06T07:37:24.670Z,10.50
2022-12-06T07:39:54.893Z,8.63
2022-12-06T07:42:40.914Z,11.30
2022-12-06T07:45:12.510Z,8.50
2022-12-06T07:47:43.650Z,8.40
2022-12-06T07:50:18.280Z,9.00
2022-12-06T07:52:48.615Z,8.43
2022-12-06T07:55:19.425Z,10.07
2022-12-06T07:57:49.179Z,9.00
2022-12-06T08:00:18.665Z,10.33
2022-12-06T08:02:47.681Z,9.10
2022-12-06T08:05:16.515Z,9.10
2022-12-06T08:07:45.492Z,8.30
2022-12-06T08:10:14.291Z,32.07
2022-12-06T08:12:44.671Z,27.03
2022-12-06T08:15:14.189Z,48.27
2022-12-06T08:17:43.357Z,21.50
2022-12-06T08:20:13.640Z,18.60
2022-12-06T08:22:42.625Z,23.60
2022-12-06T08:25:11.997Z,11.67
2022-12-06T08:27:40.748Z,14.30
2022-12-06T08:30:11.552Z,13.53
2022-12-06T08:32:40.429Z,15.10
2022-12-06T08:35:09.917Z,13.40
2022-12-06T08:37:38.875Z,11.33
2022-12-06T08:40:09.237Z,14.17
2022-12-06T08:42:38.149Z,11.63
2022-12-06T08:45:08.141Z,12.00
2022-12-06T08:47:38.454Z,11.97
2022-12-06T08:50:08.479Z,10.03
2022-12-06T08:52:37.539Z,10.90
2022-12-06T08:55:06.919Z,12.80
2022-12-06T08:57:35.634Z,19.80
2022-12-06T09:00:05.259Z,12.40
2022-12-06T09:02:33.949Z,11.87
2022-12-06T09:05:04.174Z,10.70
2022-12-06T09:07:33.012Z,11.33
2022-12-06T09:10:02.476Z,10.60
2022-12-06T09:12:31.298Z,11.10
2022-12-06T09:14:59.902Z,9.80
2022-12-06T09:17:28.587Z,11.03
2022-12-06T09:20:02.118Z,11.37
2022-12-06T09:22:35.461Z,10.77
2022-12-06T09:25:04.238Z,10.23
2022-12-06T09:27:33.477Z,9.60
2022-12-06T09:30:02.443Z,8.90
2022-12-06T09:32:31.361Z,11.53
2022-12-06T09:35:00.040Z,11.13
2022-12-06T09:37:28.692Z,11.00
2022-12-06T09:40:03.871Z,11.30
2022-12-06T09:42:57.364Z,11.30
2022-12-06T09:45:58.137Z,9.87
2022-12-06T09:49:02.510Z,10.70
2022-12-06T09:51:51.417Z,10.27
2022-12-06T09:54:34.477Z,10.13
2022-12-06T09:57:08.494Z,9.97
2022-12-06T09:59:49.445Z,10.60
2022-12-06T10:02:33.545Z,10.27
2022-12-06T10:05:23.001Z,10.37
2022-12-06T10:07:59.978Z,10.30
2022-12-06T10:10:39.112Z,9.60
2022-12-06T10:13:14.457Z,10.80
2022-12-06T10:15:54.348Z,9.90
2022-12-06T10:18:40.098Z,10.40
2022-12-06T10:21:18.754Z,8.80
2022-12-06T10:24:02.196Z,9.53
2022-12-06T10:26:35.410Z,10.67
2022-12-06T10:29:14.772Z,11.50
2022-12-06T10:31:53.948Z,11.10
2022-12-06T10:34:32.313Z,10.17
2022-12-06T10:37:09.659Z,10.33
2022-12-06T10:39:51.858Z,10.60
2022-12-06T10:42:31.820Z,11.00
2022-12-06T10:45:29.243Z,11.23
2022-12-06T10:47:58.863Z,10.97
2022-12-06T10:50:31.065Z,11.47
2022-12-06T10:53:05.056Z,11.07
2022-12-06T10:55:37.550Z,11.93
2022-12-06T10:58:17.881Z,8.33
2022-12-06T11:00:55.928Z,9.00
2022-12-06T11:03:31.097Z,5.90
2022-12-06T11:06:03.944Z,9.80
2022-12-06T11:08:37.168Z,10.20
2022-12-06T11:11:07.358Z,10.93
2022-12-06T11:13:39.406Z,9.00
2022-12-06T11:16:15.425Z,8.80
2022-12-06T11:18:45.888Z,9.13
2022-12-06T11:21:25.139Z,10.60
2022-12-06T11:24:02.288Z,7.80
2022-12-06T11:26:37.438Z,9.70
2022-12-06T11:29:10.922Z,7.07
2022-12-06T11:31:45.480Z,6.10
2022-12-06T11:34:19.777Z,12.50
2022-12-06T11:36:55.246Z,12.00
2022-12-06T11:39:28.553Z,10.73
2022-12-06T11:41:59.588Z,13.50
2022-12-06T11:44:30.495Z,11.70
2022-12-06T11:47:03.577Z,13.20
2022-12-06T11:49:35.872Z,10.20
2022-12-06T11:52:08.662Z,10.07
2022-12-06T11:54:43.579Z,11.33
2022-12-06T11:57:22.823Z,12.70
2022-12-06T12:00:16.371Z,9.23
2022-12-06T12:02:48.388Z,11.87
2022-12-06T12:05:23.085Z,8.13
2022-12-06T12:07:55.025Z,10.00
2022-12-06T12:10:32.873Z,6.80
2022-12-06T12:13:35.953Z,5.60
2022-12-06T12:16:12.599Z,10.10
2022-12-06T12:18:49.865Z,9.80
2022-12-06T12:21:29.268Z,10.90
2022-12-06T12:23:58.406Z,10.27
2022-12-06T12:26:37.815Z,5.33
2022-12-06T12:29:18.423Z,9.57
2022-12-06T12:31:56.291Z,9.13
2022-12-06T12:34:29.142Z,11.20
2022-12-06T12:37:00.785Z,10.00
2022-12-06T12:39:35.946Z,11.77
2022-12-06T12:42:05.378Z,10.20
2022-12-06T12:44:38.502Z,8.63
2022-12-06T12:47:18.739Z,10.80
2022-12-06T12:50:20.154Z,10.37
2022-12-06T12:52:48.938Z,8.40
2022-12-06T12:55:20.608Z,9.47
2022-12-06T12:57:51.235Z,7.70
2022-12-06T13:00:22.243Z,9.57
2022-12-06T13:02:56.394Z,10.10
2022-12-06T13:05:34.521Z,9.07
2022-12-06T13:08:12.562Z,10.17
2022-12-06T13:10:43.628Z,9.00
2022-12-06T13:13:17.557Z,9.20
2022-12-06T13:15:49.645Z,8.67
2022-12-06T13:18:23.482Z,9.13
2022-12-06T13:20:55.768Z,9.50
2022-12-06T13:23:28.492Z,10.17
2022-12-06T13:26:03.608Z,9.93
2022-12-06T13:28:36.461Z,11.00
2022-12-06T13:31:09.304Z,9.27
2022-12-06T13:33:43.468Z,9.83
2022-12-06T13:36:16.636Z,11.27
2022-12-06T13:38:45.763Z,12.23
2022-12-06T13:41:36.199Z,10.33
2022-12-06T13:44:04.886Z,10.30
2022-12-06T13:46:34.779Z,9.67
2022-12-06T13:49:05.841Z,10.93
2022-12-06T13:51:49.348Z,10.50
2022-12-06T13:54:41.911Z,10.10
2022-12-06T13:57:25.986Z,9.50
2022-12-06T13:59:54.809Z,10.13
2022-12-06T14:02:53.991Z,10.93
2022-12-06T14:06:06.060Z,9.50
2022-12-06T14:08:40.540Z,8.53
2022-12-06T14:11:22.400Z,8.70
2022-12-06T14:14:02.086Z,10.60
2022-12-06T14:16:35.428Z,8.80
2022-12-06T14:19:14.424Z,9.53
2022-12-06T14:21:45.919Z,9.80
2022-12-06T14:24:36.704Z,17.70
2022-12-06T14:27:13.114Z,12.40
2022-12-06T14:29:42.674Z,7.93
2022-12-06T14:32:11.686Z,8.53
2022-12-06T14:34:40.603Z,8.40
2022-12-06T14:37:21.760Z,9.43
2022-12-06T14:39:54.770Z,7.77
2022-12-06T14:42:41.093Z,8.40
2022-12-06T14:45:15.589Z,8.30
2022-12-06T14:47:46.085Z,7.67
2022-12-06T14:50:34.965Z,9.93
2022-12-06T14:53:30.128Z,7.53
2022-12-06T14:56:34.858Z,7.07
2022-12-06T15:00:10.888Z,7.57
2022-12-06T15:02:36.899Z,7.23
2022-12-06T15:08:55.091Z,8.10
2022-12-06T15:11:53.214Z,8.70
2022-12-06T15:14:27.305Z,7.97
2022-12-06T15:17:08.008Z,6.83
2022-12-06T15:19:40.007Z,7.80
2022-12-06T15:22:22.961Z,13.80
2022-12-06T15:24:56.476Z,8.43
2022-12-06T15:27:28.008Z,6.77
2022-12-06T15:29:57.223Z,6.30
2022-12-06T15:32:27.443Z,8.07
2022-12-06T15:34:56.139Z,7.93
2022-12-06T15:37:50.153Z,6.33
2022-12-06T15:40:21.201Z,7.67
2022-12-06T15:42:51.742Z,6.87
2022-12-06T15:48:21.771Z,7.20
2022-12-06T15:51:35.553Z,7.33
2022-12-06T15:55:19.371Z,9.10
2022-12-06T15:57:48.128Z,10.20
2022-12-06T16:00:37.479Z,9.27
2022-12-06T16:03:10.159Z,9.40
2022-12-06T16:05:39.383Z,7.77
2022-12-06T16:08:11.576Z,6.77
2022-12-06T16:11:10.221Z,6.73
2022-12-06T16:13:31.488Z,5.73
2022-12-06T16:16:02.075Z,6.00
2022-12-06T16:18:31.570Z,6.83
2022-12-06T16:21:04.285Z,5.33
2022-12-06T16:24:19.216Z,5.37
2022-12-06T16:27:15.231Z,5.50
2022-12-06T16:29:43.841Z,6.20
2022-12-06T16:32:13.835Z,5.87
2022-12-06T16:34:42.384Z,5.47
2022-12-06T16:37:12.775Z,6.27
2022-12-06T16:39:41.625Z,5.50
2022-12-06T16:42:10.244Z,5.40
2022-12-06T16:44:51.177Z,5.30
2022-12-06T16:49:49.731Z,5.53
2022-12-06T16:52:18.752Z,5.80
2022-12-06T16:54:47.646Z,7.90
2022-12-06T16:57:19.268Z,10.37
2022-12-06T16:59:48.098Z,14.70
2022-12-06T17:02:30.026Z,16.00
2022-12-06T17:05:01.122Z,10.13
2022-12-06T17:07:30.683Z,9.90
2022-12-06T17:09:59.417Z,10.40
2022-12-06T17:12:28.237Z,9.47
2022-12-06T17:14:56.836Z,7.93
2022-12-06T17:17:29.277Z,8.77
2022-12-06T17:19:57.862Z,8.47
2022-12-06T17:22:26.807Z,7.37
2022-12-06T17:24:56.700Z,8.83
2022-12-06T17:27:25.314Z,11.53
2022-12-06T17:29:54.012Z,6.60
2022-12-06T17:32:23.612Z,7.33
2022-12-06T17:34:53.639Z,6.27
2022-12-06T17:37:22.481Z,6.40
2022-12-06T17:39:51.123Z,6.27
2022-12-06T17:42:37.442Z,3.90
2022-12-06T17:45:07.616Z,5.03
2022-12-06T17:47:36.309Z,4.40
2022-12-06T17:50:07.805Z,3.20
2022-12-06T17:52:36.475Z,2.30
2022-12-06T17:55:05.606Z,2.80
2022-12-06T17:57:34.405Z,2.97
2022-12-06T18:00:03.336Z,6.00
2022-12-06T18:02:32.132Z,3.80
2022-12-06T18:05:01.515Z,2.87
2022-12-06T18:07:31.997Z,2.90
2022-12-06T18:10:00.649Z,3.47
2022-12-06T18:12:32.077Z,2.90
2022-12-06T18:15:02.667Z,2.50
2022-12-06T18:17:31.597Z,2.73
2022-12-06T18:20:00.455Z,3.30
2022-12-06T18:22:30.601Z,3.43
2022-12-06T18:24:59.798Z,2.50
2022-12-06T18:27:28.611Z,3.90
2022-12-06T18:29:57.737Z,3.43
2022-12-06T18:32:26.501Z,2.70
2022-12-06T18:34:55.216Z,3.63
2022-12-06T18:37:23.863Z,2.77
2022-12-06T18:39:54.594Z,2.30
2022-12-06T18:42:23.234Z,2.37
2022-12-06T18:44:57.905Z,3.70
2022-12-06T18:47:27.108Z,2.13
2022-12-06T18:49:56.565Z,5.30
2022-12-06T18:52:25.388Z,6.87
2022-12-06T18:54:55.904Z,4.97
2022-12-06T18:57:30.493Z,4.33
2022-12-06T19:00:01.141Z,2.40
2022-12-06T19:02:30.119Z,2.30
2022-12-06T19:04:59.114Z,2.80
2022-12-06T19:07:28.151Z,3.17
2022-12-06T19:09:58.245Z,4.77
2022-12-06T19:12:27.206Z,2.73
2022-12-06T19:14:55.853Z,2.87
2022-12-06T19:17:24.581Z,2.33
2022-12-06T19:19:53.435Z,2.20
2022-12-06T19:22:22.100Z,2.27
2022-12-06T19:24:51.022Z,2.90
2022-12-06T19:27:20.996Z,2.63
2022-12-06T19:29:49.762Z,2.53
2022-12-06T19:32:18.401Z,3.60
2022-12-06T19:34:47.342Z,2.80
2022-12-06T19:37:16.035Z,2.83
2022-12-06T19:39:45.878Z,2.50
2022-12-06T19:42:31.684Z,3.17
2022-12-06T19:45:01.807Z,3.10
2022-12-06T19:47:31.321Z,2.27
2022-12-06T19:50:00.758Z,3.17
2022-12-06T19:52:31.189Z,2.90
2022-12-06T19:54:59.887Z,3.10
2022-12-06T19:57:28.661Z,3.00
2022-12-06T19:59:57.369Z,3.90
2022-12-06T20:02:27.484Z,2.90
2022-12-06T20:04:56.188Z,2.93
2022-12-06T20:07:24.844Z,3.80
2022-12-06T20:09:53.513Z,2.80
2022-12-06T20:12:22.103Z,5.17
2022-12-06T20:14:51.740Z,3.67
2022-12-06T20:17:23.645Z,2.97
2022-12-06T20:19:53.798Z,3.13
2022-12-06T20:22:22.776Z,3.30
2022-12-06T20:24:51.566Z,2.30
2022-12-06T20:27:40.783Z,2.10
2022-12-06T20:30:10.785Z,2.13
2022-12-06T20:32:39.430Z,2.20
2022-12-06T20:35:10.093Z,2.23
2022-12-06T20:37:38.854Z,2.17
2022-12-06T20:40:09.247Z,2.40
2022-12-06T20:42:38.042Z,2.10
2022-12-06T20:45:07.683Z,2.83
2022-12-06T20:47:36.407Z,2.50
2022-12-06T20:50:05.914Z,2.80
2022-12-06T20:52:35.999Z,3.33
2022-12-06T20:55:04.721Z,2.70
2022-12-06T20:57:33.398Z,2.47
2022-12-06T21:00:07.063Z,3.17
2022-12-06T21:02:36.480Z,2.40
2022-12-06T21:05:05.710Z,3.10
2022-12-06T21:07:35.856Z,2.10
2022-12-06T21:10:04.895Z,3.43
2022-12-06T21:12:33.680Z,3.37
2022-12-06T21:15:02.379Z,3.10
2022-12-06T21:17:33.911Z,2.83
2022-12-06T21:20:02.841Z,3.93
2022-12-06T21:22:31.814Z,4.27
2022-12-06T21:25:02.153Z,3.73
2022-12-06T21:27:31.142Z,3.60
2022-12-06T21:30:00.045Z,4.17
2022-12-06T21:32:28.986Z,3.43
2022-12-06T21:34:57.687Z,3.43
2022-12-06T21:37:26.353Z,3.93
2022-12-06T21:39:55.023Z,12.57
2022-12-06T21:42:25.084Z,8.37
2022-12-06T21:44:53.735Z,4.57
2022-12-06T21:47:22.470Z,4.60
2022-12-06T21:49:51.157Z,5.40
2022-12-06T21:52:19.955Z,4.17
2022-12-06T21:54:48.575Z,5.73
2022-12-06T21:57:27.977Z,5.63
2022-12-06T21:59:58.065Z,6.73
2022-12-06T22:02:26.876Z,6.10
2022-12-06T22:04:55.605Z,6.20
2022-12-06T22:07:24.260Z,6.40
2022-12-06T22:09:53.024Z,7.40
2022-12-06T22:12:21.916Z,6.27
2022-12-06T22:14:50.548Z,7.57
2022-12-06T22:17:20.711Z,8.10
2022-12-06T22:19:49.625Z,8.60
2022-12-06T22:22:19.556Z,8.30
2022-12-06T22:24:48.455Z,11.13
2022-12-06T22:27:17.055Z,8.10
2022-12-06T22:29:45.672Z,11.77
2022-12-06T22:32:14.305Z,12.93
2022-12-06T22:34:44.304Z,13.10
2022-12-06T22:37:12.968Z,13.43
2022-12-06T22:39:41.672Z,12.93
2022-12-06T22:42:10.412Z,15.23
2022-12-06T22:44:39.035Z,13.87
2022-12-06T22:47:07.744Z,14.33
2022-12-06T22:49:36.412Z,12.30
2022-12-06T22:52:06.702Z,14.97
2022-12-06T22:54:35.542Z,12.30
2022-12-06T22:57:04.238Z,14.60
2022-12-06T22:59:32.928Z,13.13
2022-12-06T23:02:01.686Z,13.57
2022-12-06T23:04:30.451Z,12.83
2022-12-06T23:06:59.079Z,13.53
2022-12-06T23:09:29.201Z,11.90
2022-12-06T23:11:57.899Z,13.00
2022-12-06T23:14:26.566Z,13.80
2022-12-06T23:16:55.221Z,12.20
2022-12-06T23:19:23.909Z,10.63
2022-12-06T23:21:52.710Z,10.93
2022-12-06T23:24:21.337Z,10.23
2022-12-06T23:26:57.494Z,12.50
2022-12-06T23:29:26.737Z,12.27
2022-12-06T23:31:55.550Z,11.13
2022-12-06T23:34:26.600Z,11.40
2022-12-06T23:36:57.188Z,11.40
2022-12-06T23:39:25.892Z,10.50
2022-12-06T23:41:56.153Z,10.97
2022-12-06T23:44:25.234Z,9.67
2022-12-06T23:46:54.028Z,10.50
2022-12-06T23:49:23.488Z,11.30
2022-12-06T23:51:52.328Z,8.33
2022-12-06T23:54:21.135Z,11.37
2022-12-06T23:56:49.820Z,9.73
2022-12-06T23:59:20.124Z,11.37
